createdAt,value
2023-03-11T00:04:41.249Z,1.90
2023-03-11T00:09:43.376Z,1.95
2023-03-11T00:14:45.610Z,2.25
2023-03-11T00:19:47.589Z,1.80
2023-03-11T00:24:49.618Z,2.20
2023-03-11T00:29:51.678Z,2.25
2023-03-11T00:34:53.858Z,2.72
2023-03-11T00:39:56.233Z,2.83
2023-03-11T00:44:58.287Z,2.33
2023-03-11T00:50:00.691Z,2.38
2023-03-11T00:55:02.965Z,2.45
2023-03-11T01:00:11.200Z,2.10
2023-03-11T01:05:13.690Z,2.40
2023-03-11T01:10:16.499Z,2.55
2023-03-11T01:15:36.111Z,2.50
2023-03-11T01:20:38.732Z,2.30
2023-03-11T01:25:40.805Z,2.25
2023-03-11T01:30:43.116Z,2.90
2023-03-11T01:35:46.123Z,2.47
2023-03-11T01:40:50.670Z,2.30
2023-03-11T01:45:53.911Z,2.28
2023-03-11T01:51:00.638Z,2.33
2023-03-11T01:56:06.904Z,2.43
2023-03-11T02:01:09.242Z,2.28
2023-03-11T02:06:15.932Z,1.95
2023-03-11T02:11:22.582Z,1.80
2023-03-11T02:16:25.146Z,2.20
2023-03-11T02:21:32.668Z,2.28
2023-03-11T02:27:06.828Z,2.45
2023-03-11T02:32:10.791Z,2.25
2023-03-11T02:37:18.612Z,1.75
2023-03-11T02:42:31.456Z,2.22
2023-03-11T02:47:36.069Z,2.63
2023-03-11T02:52:38.593Z,2.30
2023-03-11T02:57:40.856Z,2.90
2023-03-11T03:02:44.635Z,2.40
2023-03-11T03:07:50.556Z,2.35
2023-03-11T03:12:53.630Z,2.53
2023-03-11T03:17:56.412Z,2.55
2023-03-11T03:22:59.263Z,2.28
2023-03-11T03:28:04.871Z,2.35
2023-03-11T03:33:09.849Z,2.10
2023-03-11T03:38:12.698Z,2.30
2023-03-11T03:43:15.693Z,2.33
2023-03-11T03:48:20.205Z,2.42
2023-03-11T03:53:23.070Z,2.15
2023-03-11T03:58:25.314Z,2.83
2023-03-11T04:03:27.736Z,2.40
2023-03-11T04:08:35.016Z,2.67
2023-03-11T04:13:38.080Z,2.10
2023-03-11T04:18:41.588Z,2.53
2023-03-11T04:23:44.242Z,2.38
2023-03-11T04:28:49.097Z,2.10
2023-03-11T04:33:52.228Z,2.50
2023-03-11T04:38:56.991Z,2.80
2023-03-11T04:44:00.659Z,3.05
2023-03-11T04:49:03.579Z,2.33
2023-03-11T04:54:05.870Z,2.33
2023-03-11T04:59:08.791Z,2.40
2023-03-11T05:04:13.122Z,2.53
2023-03-11T05:09:16.294Z,2.67
2023-03-11T05:14:18.469Z,2.50
2023-03-11T05:19:34.703Z,2.80
2023-03-11T05:24:42.944Z,2.60
2023-03-11T05:29:45.241Z,2.72
2023-03-11T05:34:48.352Z,2.58
2023-03-11T05:39:52.681Z,2.58
2023-03-11T05:44:55.741Z,2.40
2023-03-11T05:49:59.610Z,2.13
2023-03-11T05:55:02.003Z,2.42
2023-03-11T06:00:12.282Z,2.65
2023-03-11T06:05:21.683Z,3.20
2023-03-11T06:10:25.860Z,2.65
2023-03-11T06:15:28.286Z,3.25
2023-03-11T06:20:31.424Z,2.97
2023-03-11T06:25:33.960Z,2.38
2023-03-11T06:30:36.560Z,2.92
2023-03-11T06:35:59.072Z,3.00
2023-03-11T06:41:03.859Z,2.83
2023-03-11T06:46:17.337Z,2.72
2023-03-11T06:51:21.335Z,2.90
2023-03-11T06:56:24.234Z,3.47
2023-03-11T07:01:37.710Z,3.17
2023-03-11T07:06:43.218Z,3.03
2023-03-11T07:11:52.425Z,3.25
2023-03-11T07:17:01.725Z,3.17
2023-03-11T07:22:15.556Z,3.05
2023-03-11T07:27:18.482Z,3.65
2023-03-11T07:32:20.540Z,3.10
2023-03-11T07:37:22.844Z,3.75
2023-03-11T07:42:25.074Z,3.58
2023-03-11T07:47:29.857Z,4.10
2023-03-11T07:52:32.573Z,3.97
2023-03-11T07:57:34.761Z,3.95
2023-03-11T08:02:37.168Z,3.90
2023-03-11T08:07:39.366Z,3.78
2023-03-11T08:12:41.504Z,3.25
2023-03-11T08:17:43.740Z,3.53
2023-03-11T08:22:57.358Z,3.67
2023-03-11T08:28:00.637Z,2.72
2023-03-11T08:33:03.045Z,2.95
2023-03-11T08:38:05.735Z,3.20
2023-03-11T08:43:07.904Z,2.63
2023-03-11T08:48:11.774Z,3.40
2023-03-11T08:53:16.072Z,2.60
2023-03-11T08:58:21.243Z,2.70
2023-03-11T09:03:26.192Z,2.72
2023-03-11T09:08:28.758Z,1.95
2023-03-11T09:13:31.040Z,1.27
2023-03-11T09:18:33.236Z,1.80
2023-03-11T09:23:35.459Z,1.83
2023-03-11T09:28:37.528Z,1.63
2023-03-11T09:33:41.829Z,1.20
2023-03-11T09:38:44.851Z,1.10
2023-03-11T09:43:56.313Z,1.58
2023-03-11T09:49:22.995Z,1.33
2023-03-11T09:54:28.919Z,1.48
2023-03-11T09:59:32.539Z,1.00
2023-03-11T10:04:55.990Z,1.60
2023-03-11T10:09:58.978Z,1.13
2023-03-11T10:15:27.762Z,1.50
2023-03-11T10:20:55.125Z,1.38
2023-03-11T10:26:11.106Z,0.90
2023-03-11T10:31:20.293Z,1.13
2023-03-11T10:36:27.241Z,1.10
2023-03-11T10:41:29.689Z,0.98
2023-03-11T10:46:31.860Z,1.20
2023-03-11T10:51:35.364Z,0.77
2023-03-11T10:56:39.946Z,1.20
2023-03-11T11:01:54.256Z,1.00
2023-03-11T11:06:56.414Z,0.65
2023-03-11T11:12:11.825Z,13.07
2023-03-11T11:17:24.956Z,1.30
2023-03-11T11:22:28.591Z,1.45
2023-03-11T11:27:32.775Z,0.90
2023-03-11T11:32:36.113Z,1.10
2023-03-11T11:37:50.904Z,0.90
2023-03-11T11:42:56.928Z,0.90
2023-03-11T11:48:04.574Z,1.40
2023-03-11T11:53:28.973Z,1.02
2023-03-11T11:58:31.695Z,0.82
2023-03-11T12:03:50.277Z,0.70
2023-03-11T12:09:06.253Z,0.80
2023-03-11T12:14:25.437Z,0.70
2023-03-11T12:19:36.967Z,1.05
2023-03-11T12:25:40.706Z,1.40
2023-03-11T12:30:46.075Z,0.73
2023-03-11T12:35:56.891Z,0.82
2023-03-11T12:41:38.841Z,0.88
2023-03-11T12:46:59.182Z,0.90
2023-03-11T12:52:16.562Z,1.00
2023-03-11T12:57:18.616Z,2.35
2023-03-11T13:02:42.258Z,1.00
2023-03-11T13:08:02.662Z,0.77
2023-03-11T13:13:35.076Z,0.75
2023-03-11T13:18:37.318Z,1.23
2023-03-11T13:23:42.618Z,6.13
2023-03-11T13:29:13.914Z,1.13
2023-03-11T13:34:21.939Z,0.60
2023-03-11T13:39:33.124Z,0.95
2023-03-11T13:44:37.476Z,0.70
2023-03-11T13:49:51.665Z,11.48
2023-03-11T13:55:02.676Z,2.55
2023-03-11T14:00:16.699Z,1.00
2023-03-11T14:05:23.366Z,1.73
2023-03-11T14:10:28.972Z,1.00
2023-03-11T14:15:40.990Z,7.78
2023-03-11T14:20:47.759Z,2.10
2023-03-11T14:25:58.309Z,2.63
2023-03-11T14:31:02.404Z,6.00
2023-03-11T14:36:07.006Z,5.57
2023-03-11T14:41:14.100Z,1.10
2023-03-11T14:46:27.985Z,1.20
2023-03-11T14:51:34.317Z,2.10
2023-03-11T14:56:40.779Z,1.40
2023-03-11T15:01:46.509Z,8.40
2023-03-11T15:06:48.596Z,3.40
2023-03-11T15:12:01.967Z,1.60
2023-03-11T15:17:33.097Z,0.82
2023-03-11T15:22:41.166Z,2.03
2023-03-11T15:27:43.280Z,2.30
2023-03-11T15:32:46.023Z,1.17
2023-03-11T15:37:50.246Z,1.00
2023-03-11T15:43:23.783Z,1.08
2023-03-11T15:48:27.795Z,1.13
2023-03-11T15:53:30.614Z,1.02
2023-03-11T15:58:32.609Z,1.10
2023-03-11T16:03:34.738Z,6.68
2023-03-11T16:08:36.832Z,1.08
2023-03-11T16:13:39.256Z,1.30
2023-03-11T16:18:41.425Z,1.33
2023-03-11T16:23:51.532Z,1.38
2023-03-11T16:28:54.370Z,1.58
2023-03-11T16:33:56.510Z,1.63
2023-03-11T16:38:58.830Z,1.50
2023-03-11T16:44:01.033Z,1.50
2023-03-11T16:49:03.276Z,3.05
2023-03-11T16:54:05.543Z,2.97
2023-03-11T16:59:07.926Z,2.80
2023-03-11T17:04:10.070Z,8.43
2023-03-11T17:09:12.124Z,8.65
2023-03-11T17:14:16.820Z,11.48
2023-03-11T17:19:19.155Z,5.78
2023-03-11T17:24:21.333Z,3.90
2023-03-11T17:29:23.408Z,7.10
2023-03-11T17:34:25.573Z,8.55
2023-03-11T17:39:27.735Z,12.80
2023-03-11T17:44:37.853Z,16.83
2023-03-11T17:49:48.442Z,11.18
2023-03-11T17:54:51.758Z,12.60
2023-03-11T17:59:54.003Z,10.40
2023-03-11T18:04:56.324Z,9.77
2023-03-11T18:09:58.602Z,17.00
2023-03-11T18:15:05.952Z,12.27
2023-03-11T18:20:08.869Z,18.80
2023-03-11T18:25:11.095Z,11.93
2023-03-11T18:30:14.423Z,16.88
2023-03-11T18:35:17.601Z,16.55
2023-03-11T18:40:20.110Z,26.58
2023-03-11T18:45:22.121Z,29.58
2023-03-11T18:50:24.356Z,20.50
2023-03-11T18:55:26.442Z,22.98
2023-03-11T19:00:28.752Z,22.15
2023-03-11T19:05:30.832Z,22.73
2023-03-11T19:10:32.998Z,26.40
2023-03-11T19:15:41.696Z,36.05
2023-03-11T19:20:43.740Z,53.05
2023-03-11T19:26:00.722Z,38.65
2023-03-11T19:31:05.386Z,30.30
2023-03-11T19:36:08.106Z,25.60
2023-03-11T19:41:18.522Z,31.77
2023-03-11T19:46:21.875Z,33.05
2023-03-11T19:51:25.414Z,44.85
2023-03-11T19:56:30.518Z,38.20
2023-03-11T20:01:32.525Z,35.70
2023-03-11T20:06:34.607Z,33.10
2023-03-11T20:11:40.458Z,18.73
2023-03-11T20:16:42.720Z,15.60
2023-03-11T20:21:46.026Z,21.13
2023-03-11T20:26:50.761Z,17.30
2023-03-11T20:31:53.537Z,18.08
2023-03-11T20:36:55.943Z,20.08
2023-03-11T20:41:58.216Z,26.33
2023-03-11T20:47:00.453Z,26.02
2023-03-11T20:52:02.964Z,15.15
2023-03-11T20:57:05.139Z,14.05
2023-03-11T21:02:11.023Z,15.40
2023-03-11T21:07:13.503Z,17.60
2023-03-11T21:12:15.743Z,17.27
2023-03-11T21:17:17.928Z,14.40
2023-03-11T21:22:20.223Z,17.80
2023-03-11T21:27:26.478Z,36.03
2023-03-11T21:32:29.323Z,21.80
2023-03-11T21:37:31.653Z,20.45
2023-03-11T21:42:33.892Z,16.00
2023-03-11T21:47:37.765Z,17.30
2023-03-11T21:52:40.050Z,9.50
2023-03-11T21:57:42.162Z,9.38
2023-03-11T22:02:44.610Z,8.38
2023-03-11T22:07:46.715Z,11.77
2023-03-11T22:12:49.140Z,7.97
2023-03-11T22:17:51.465Z,6.90
2023-03-11T22:22:54.344Z,7.10
2023-03-11T22:27:56.738Z,9.02
2023-03-11T22:32:58.871Z,11.23
2023-03-11T22:38:01.082Z,8.80
2023-03-11T22:43:03.348Z,6.80
2023-03-11T22:48:05.892Z,7.10
2023-03-11T22:53:08.591Z,7.28
2023-03-11T22:58:12.114Z,6.97
2023-03-11T23:03:14.508Z,6.50
2023-03-11T23:08:16.734Z,6.60
2023-03-11T23:13:19.347Z,6.78
2023-03-11T23:18:21.467Z,6.63
2023-03-11T23:23:23.504Z,6.68
2023-03-11T23:28:25.602Z,5.63
2023-03-11T23:33:27.968Z,6.40
2023-03-11T23:38:30.555Z,6.20
2023-03-11T23:43:32.620Z,6.28
2023-03-11T23:48:34.635Z,5.80
2023-03-11T23:53:37.445Z,4.85
2023-03-11T23:58:39.999Z,4.53
